Terminal Aerodrome Forecast
Issued by NWS Boise, ID

Home | Current Version | Previous Version | Text Only | Print | Product List | Glossary On
Versions: 1 2 3 4 5 6 7 8 9 10 11 12 13 14 15 16 17 18 19 20 21 22 23 24 25 26 27 28 29 30
000
FTUS45 KBOI 201740
TAFBOI
TAF
KBOI 201740Z 2018/2118 13010KT P6SM -SHRA BKN025 OVC040
     FM202100 13012KT 5SM RA BR OVC015
     FM210500 13010KT P6SM -SHRA OVC030
     FM211500 VRB05KT P6SM VCSH OVC070=

USA.gov is the U.S. government's official web portal to all federal, state and local government web resources and services.